Time;durP1;ratioP1;P1;durP2;ratioP2;P2;SDS_P1;SDS_P2;PMS_P1;PMS_P2;Temp;Humidity;BMP_temperature;BMP_pressure;BME280_temperature;BME280_humidity;BME280_pressure;Samples;Min_cycle;Max_cycle;Signal;HPM_P1;HPM_P2
2022/12/13 00:00:40;;;;;;;64.15;21.05;;;;;;;;;;4967499;28;20470;-96
2022/12/13 00:03:07;;;;;;;77.55;21.50;;;;;;;;;;4967244;28;20601;-96
2022/12/13 00:05:33;;;;;;;48.92;18.42;;;;;;;;;;4967370;28;20030;-96
2022/12/13 00:08:02;;;;;;;51.22;17.65;;;;;;;;;;4967697;28;20471;-95
2022/12/13 00:10:28;;;;;;;59.92;20.10;;;;;;;;;;4967716;28;20030;-96
2022/12/13 00:12:54;;;;;;;40.40;14.82;;;;;;;;;;4983407;28;20026;-96
2022/12/13 00:15:20;;;;;;;56.80;20.63;;;;;;;;;;4967564;28;20437;-96
2022/12/13 00:17:46;;;;;;;62.25;20.92;;;;;;;;;;4968078;28;20121;-96
2022/12/13 00:20:12;;;;;;;56.40;18.73;;;;;;;;;;4983799;28;20077;-96
2022/12/13 00:22:40;;;;;;;52.55;18.58;;;;;;;;;;4967188;28;20541;-96
2022/12/13 00:25:07;;;;;;;56.80;19.92;;;;;;;;;;4967106;28;20121;-96
2022/12/13 00:27:36;;;;;;;48.47;17.95;;;;;;;;;;4967213;28;20033;-96
2022/12/13 00:30:02;;;;;;;66.18;20.73;;;;;;;;;;4982776;28;20089;-95
2022/12/13 00:32:28;;;;;;;55.53;17.15;;;;;;;;;;4966648;28;20486;-96
2022/12/13 00:34:54;;;;;;;63.28;19.70;;;;;;;;;;4967075;28;20027;-95
2022/12/13 00:37:20;;;;;;;50.88;19.67;;;;;;;;;;4983124;28;20340;-95
2022/12/13 00:39:46;;;;;;;60.33;19.33;;;;;;;;;;4967289;28;20034;-96
2022/12/13 00:42:12;;;;;;;55.88;18.30;;;;;;;;;;4981947;28;20080;-96
2022/12/13 00:44:38;;;;;;;65.88;19.33;;;;;;;;;;4966816;28;20038;-96
2022/12/13 00:47:04;;;;;;;55.38;19.95;;;;;;;;;;4966592;28;20467;-96
2022/12/13 00:49:30;;;;;;;60.83;18.65;;;;;;;;;;4965766;28;20038;-96
2022/12/13 00:51:56;;;;;;;47.85;19.42;;;;;;;;;;4967117;28;20053;-96
2022/12/13 00:54:22;;;;;;;59.67;21.55;;;;;;;;;;4965835;28;20038;-96
2022/12/13 00:56:50;;;;;;;66.25;19.55;;;;;;;;;;4966724;28;20030;-96
2022/12/13 00:59:16;;;;;;;63.78;20.95;;;;;;;;;;4966115;28;20026;-95
2022/12/13 01:01:42;;;;;;;59.15;21.20;;;;;;;;;;4966276;28;20126;-96
2022/12/13 01:04:10;;;;;;;58.67;19.77;;;;;;;;;;4982197;28;20022;-96
2022/12/13 01:06:36;;;;;;;67.22;20.00;;;;;;;;;;4982654;28;20030;-96
2022/12/13 01:09:02;;;;;;;54.95;19.05;;;;;;;;;;4982220;28;20077;-96
2022/12/13 01:11:29;;;;;;;73.68;20.75;;;;;;;;;;4981578;28;20117;-96
2022/12/13 01:13:55;;;;;;;59.63;20.67;;;;;;;;;;4998046;28;20022;-96
2022/12/13 01:16:21;;;;;;;48.80;16.48;;;;;;;;;;4981753;28;20022;-96
2022/12/13 01:18:47;;;;;;;48.40;16.75;;;;;;;;;;4966003;28;20034;-96
2022/12/13 01:21:14;;;;;;;55.83;18.92;;;;;;;;;;4965624;28;20034;-95
2022/12/13 01:23:41;;;;;;;62.13;19.55;;;;;;;;;;4980905;28;20078;-96
2022/12/13 01:26:08;;;;;;;46.92;19.98;;;;;;;;;;4965103;28;20042;-96
2022/12/13 01:28:35;;;;;;;51.03;18.25;;;;;;;;;;4981390;28;20038;-96
2022/12/13 01:31:05;;;;;;;57.70;19.23;;;;;;;;;;4982073;28;20073;-96
2022/12/13 01:33:31;;;;;;;62.22;20.02;;;;;;;;;;4982735;28;20031;-95
2022/12/13 01:36:00;;;;;;;63.40;20.25;;;;;;;;;;4983737;28;20169;-96
2022/12/13 01:38:27;;;;;;;63.10;19.90;;;;;;;;;;4984080;28;20037;-95
2022/12/13 01:40:56;;;;;;;54.38;19.20;;;;;;;;;;4967567;28;20030;-96
2022/12/13 01:43:24;;;;;;;51.00;18.45;;;;;;;;;;4984236;28;20478;-95
2022/12/13 01:45:50;;;;;;;63.63;19.77;;;;;;;;;;4983614;28;20026;-96
2022/12/13 01:48:19;;;;;;;58.15;18.60;;;;;;;;;;4971370;28;20061;-96
2022/12/13 01:50:47;;;;;;;55.67;19.15;;;;;;;;;;4978102;28;20035;-95
2022/12/13 01:53:25;;;;;;;57.45;19.17;;;;;;;;;;5005531;28;20045;-95
2022/12/13 01:56:01;;;;;;;57.60;18.80;;;;;;;;;;5003315;28;20018;-95
2022/12/13 01:58:28;;;;;;;52.08;18.30;;;;;;;;;;5003469;28;20034;-96
2022/12/13 02:00:57;;;;;;;65.20;19.05;;;;;;;;;;5006627;28;20061;-96
2022/12/13 02:03:23;;;;;;;55.65;17.45;;;;;;;;;;4978595;28;20471;-96
2022/12/13 02:05:53;;;;;;;48.13;16.80;;;;;;;;;;4986496;28;20379;-95
2022/12/13 02:08:19;;;;;;;50.65;16.23;;;;;;;;;;4982557;28;20037;-94
2022/12/13 02:10:46;;;;;;;60.72;19.05;;;;;;;;;;4965673;28;20034;-95
2022/12/13 02:13:12;;;;;;;52.60;16.63;;;;;;;;;;4965429;28;20034;-94
2022/12/13 02:15:58;;;;;;;55.92;18.83;;;;;;;;;;4965949;28;20064;-96
2022/12/13 02:18:27;;;;;;;45.28;15.43;;;;;;;;;;4933700;28;20062;-96
2022/12/13 02:21:00;;;;;;;56.13;19.63;;;;;;;;;;4981375;28;20050;-95
2022/12/13 02:23:38;;;;;;;48.83;16.85;;;;;;;;;;4981046;28;20367;-95
2022/12/13 02:26:23;;;;;;;70.32;20.50;;;;;;;;;;4981369;28;20068;-95
2022/12/13 02:28:49;;;;;;;45.38;15.90;;;;;;;;;;4980855;28;20037;-96
2022/12/13 02:31:26;;;;;;;53.70;17.10;;;;;;;;;;4980714;28;20034;-94
2022/12/13 02:33:58;;;;;;;49.78;18.45;;;;;;;;;;4980404;28;20061;-96
2022/12/13 02:36:32;;;;;;;65.22;20.83;;;;;;;;;;4980939;28;20157;-95
2022/12/13 02:38:58;;;;;;;53.78;19.38;;;;;;;;;;4980401;28;20478;-95
2022/12/13 02:41:36;;;;;;;50.53;17.75;;;;;;;;;;4980544;28;20033;-95
2022/12/13 02:44:08;;;;;;;48.78;18.08;;;;;;;;;;4980599;28;20030;-96
2022/12/13 02:46:36;;;;;;;62.15;18.85;;;;;;;;;;4980843;28;20026;-95
2022/12/13 02:49:03;;;;;;;54.05;15.15;;;;;;;;;;4980295;28;20033;-95
2022/12/13 02:51:30;;;;;;;55.35;18.83;;;;;;;;;;4981533;28;20030;-96
2022/12/13 02:54:03;;;;;;;56.38;19.10;;;;;;;;;;4965002;28;20078;-95
2022/12/13 02:56:30;;;;;;;59.28;19.25;;;;;;;;;;4965463;28;20022;-95
2022/12/13 02:58:57;;;;;;;52.08;19.05;;;;;;;;;;4964358;28;20130;-94
2022/12/13 03:01:29;;;;;;;56.90;18.40;;;;;;;;;;4963758;28;20541;-95
2022/12/13 03:04:08;;;;;;;60.38;20.35;;;;;;;;;;4979469;28;20393;-94
2022/12/13 03:06:53;;;;;;;46.13;16.42;;;;;;;;;;4979558;28;20504;-95
2022/12/13 03:09:29;;;;;;;58.70;20.23;;;;;;;;;;4981003;28;20454;-95
2022/12/13 03:15:28;;;;;;;52.40;17.83;;;;;;;;;;4997491;28;20052;-94
2022/12/13 03:18:03;;;;;;;63.80;19.58;;;;;;;;;;4959273;28;20035;-95
2022/12/13 03:20:30;;;;;;;55.60;16.33;;;;;;;;;;4980360;28;20113;-94
2022/12/13 03:22:56;;;;;;;56.53;17.60;;;;;;;;;;4963995;28;20034;-95
2022/12/13 03:25:33;;;;;;;52.95;17.33;;;;;;;;;;4979434;28;20065;-94
2022/12/13 03:28:04;;;;;;;57.13;18.60;;;;;;;;;;4964683;28;20108;-95
2022/12/13 03:30:31;;;;;;;55.22;18.42;;;;;;;;;;4980364;28;20077;-95
2022/12/13 03:32:58;;;;;;;53.00;16.25;;;;;;;;;;4963509;28;20481;-94
2022/12/13 03:35:24;;;;;;;49.58;16.70;;;;;;;;;;4963644;28;20030;-94
2022/12/13 03:37:50;;;;;;;50.78;18.48;;;;;;;;;;4963379;28;20410;-95
2022/12/13 03:40:17;;;;;;;53.58;18.60;;;;;;;;;;4979451;28;20022;-94
2022/12/13 03:42:43;;;;;;;65.40;19.35;;;;;;;;;;4979528;28;20076;-94
2022/12/13 03:45:12;;;;;;;57.10;19.17;;;;;;;;;;4979147;28;20505;-95
2022/12/13 03:47:38;;;;;;;44.22;17.38;;;;;;;;;;4964354;28;20034;-95
2022/12/13 03:50:04;;;;;;;54.42;17.95;;;;;;;;;;4963500;28;20037;-95
2022/12/13 03:52:43;;;;;;;39.85;17.40;;;;;;;;;;4981316;28;20046;-96
2022/12/13 03:55:09;;;;;;;55.22;17.40;;;;;;;;;;4964184;28;20367;-95
2022/12/13 03:57:36;;;;;;;48.28;16.25;;;;;;;;;;4979346;28;20022;-95
2022/12/13 04:00:03;;;;;;;42.80;14.98;;;;;;;;;;4979078;28;20049;-94
2022/12/13 04:02:29;;;;;;;51.58;17.38;;;;;;;;;;4995496;28;20034;-95
2022/12/13 04:04:55;;;;;;;53.75;16.27;;;;;;;;;;4963166;28;20042;-94
2022/12/13 04:07:22;;;;;;;45.58;15.23;;;;;;;;;;4963337;28;20034;-94
2022/12/13 04:09:48;;;;;;;41.20;14.80;;;;;;;;;;4963348;28;20038;-94
2022/12/13 04:14:58;;;;;;;52.03;18.00;;;;;;;;;;4982450;28;20045;-95
2022/12/13 04:17:24;;;;;;;47.70;15.43;;;;;;;;;;4963478;28;20174;-95
2022/12/13 04:19:50;;;;;;;45.17;15.95;;;;;;;;;;4966346;28;20038;-94
2022/12/13 04:22:16;;;;;;;41.10;15.13;;;;;;;;;;4965902;28;20053;-95
2022/12/13 04:24:42;;;;;;;61.67;17.77;;;;;;;;;;4967252;28;20455;-95
2022/12/13 04:27:08;;;;;;;52.08;16.30;;;;;;;;;;4966281;28;20038;-94
2022/12/13 04:29:34;;;;;;;42.08;15.77;;;;;;;;;;4966760;28;20036;-95
2022/12/13 04:32:00;;;;;;;53.20;16.58;;;;;;;;;;4966685;28;20038;-94
2022/12/13 04:34:26;;;;;;;56.55;14.82;;;;;;;;;;4966453;28;20034;-94
2022/12/13 04:36:54;;;;;;;39.30;15.45;;;;;;;;;;4982891;28;20121;-95
2022/12/13 04:39:23;;;;;;;45.72;16.25;;;;;;;;;;4966903;28;20031;-94
2022/12/13 04:41:50;;;;;;;46.83;15.57;;;;;;;;;;4967440;28;20478;-94
2022/12/13 04:44:16;;;;;;;40.42;15.63;;;;;;;;;;4983427;28;20437;-95
2022/12/13 04:46:42;;;;;;;48.95;16.17;;;;;;;;;;4967554;28;20041;-95
2022/12/13 04:49:08;;;;;;;50.92;16.73;;;;;;;;;;4966846;28;20038;-94
2022/12/13 04:51:34;;;;;;;46.00;17.00;;;;;;;;;;4968151;28;20565;-94
2022/12/13 04:54:00;;;;;;;55.00;18.33;;;;;;;;;;4986186;28;20050;-95
2022/12/13 04:56:26;;;;;;;53.50;17.23;;;;;;;;;;4970266;28;20030;-94
2022/12/13 04:58:52;;;;;;;54.60;16.83;;;;;;;;;;4989609;28;20466;-95
2022/12/13 05:01:18;;;;;;;42.97;17.23;;;;;;;;;;4984602;28;20041;-94
2022/12/13 05:03:44;;;;;;;46.97;15.80;;;;;;;;;;4988158;28;20035;-94
2022/12/13 05:06:12;;;;;;;54.63;15.43;;;;;;;;;;4988341;28;20034;-92
2022/12/13 05:08:38;;;;;;;36.15;14.27;;;;;;;;;;5003664;28;20038;-94
2022/12/13 05:11:05;;;;;;;48.42;16.17;;;;;;;;;;4995831;28;20034;-95
2022/12/13 05:13:31;;;;;;;38.78;15.20;;;;;;;;;;4975031;28;20034;-96
2022/12/13 05:15:58;;;;;;;51.47;16.20;;;;;;;;;;4968291;28;20066;-94
2022/12/13 05:18:24;;;;;;;44.58;15.73;;;;;;;;;;4982065;28;20171;-95
2022/12/13 05:20:50;;;;;;;46.22;15.88;;;;;;;;;;4966788;28;20030;-95
2022/12/13 05:23:17;;;;;;;42.38;14.85;;;;;;;;;;4983175;28;20022;-94
2022/12/13 05:25:43;;;;;;;50.25;17.30;;;;;;;;;;4965990;28;20057;-94
2022/12/13 05:28:10;;;;;;;51.72;16.17;;;;;;;;;;4981654;28;20034;-95
2022/12/13 05:30:39;;;;;;;45.60;16.85;;;;;;;;;;4981948;28;20026;-95
2022/12/13 05:33:05;;;;;;;47.88;16.27;;;;;;;;;;4965686;28;20491;-94
2022/12/13 05:35:32;;;;;;;47.75;15.75;;;;;;;;;;4965810;28;20022;-95
2022/12/13 05:37:58;;;;;;;46.40;16.15;;;;;;;;;;4981025;28;20505;-95
2022/12/13 05:40:25;;;;;;;44.65;17.10;;;;;;;;;;4980998;28;20022;-94
2022/12/13 05:42:51;;;;;;;44.15;16.73;;;;;;;;;;4980506;28;20030;-94
2022/12/13 05:45:18;;;;;;;44.38;16.48;;;;;;;;;;4964982;28;20070;-95
2022/12/13 05:47:44;;;;;;;51.63;15.23;;;;;;;;;;4964290;28;20038;-95
2022/12/13 05:50:11;;;;;;;54.15;18.13;;;;;;;;;;4980849;28;20113;-94
2022/12/13 05:52:37;;;;;;;48.40;15.80;;;;;;;;;;4964730;28;20034;-94
2022/12/13 05:55:03;;;;;;;42.15;17.08;;;;;;;;;;4950152;28;20526;-94
2022/12/13 05:57:29;;;;;;;41.95;16.00;;;;;;;;;;4946297;28;20126;-94
2022/12/13 05:59:55;;;;;;;37.53;15.25;;;;;;;;;;4962237;28;20039;-94
2022/12/13 06:02:21;;;;;;;54.63;15.88;;;;;;;;;;4962251;28;20081;-94
2022/12/13 06:04:47;;;;;;;59.33;18.25;;;;;;;;;;4962862;28;20066;-95
2022/12/13 06:07:13;;;;;;;50.22;17.80;;;;;;;;;;4945813;28;20041;-95
2022/12/13 06:09:40;;;;;;;39.78;14.88;;;;;;;;;;4945554;28;20030;-94
2022/12/13 06:12:08;;;;;;;43.17;15.70;;;;;;;;;;4945646;28;20026;-95
2022/12/13 06:14:35;;;;;;;43.75;14.82;;;;;;;;;;4946869;28;20038;-95
2022/12/13 06:17:01;;;;;;;43.17;14.82;;;;;;;;;;4961982;28;20074;-94
2022/12/13 06:19:27;;;;;;;41.03;14.80;;;;;;;;;;4945698;28;20376;-95
2022/12/13 06:21:57;;;;;;;50.42;15.88;;;;;;;;;;4960939;28;20031;-95
2022/12/13 06:24:23;;;;;;;48.45;14.48;;;;;;;;;;4961291;28;20022;-93
2022/12/13 06:26:50;;;;;;;41.80;14.98;;;;;;;;;;4961989;28;20479;-95
2022/12/13 06:29:17;;;;;;;52.03;15.15;;;;;;;;;;4961807;28;20054;-94
2022/12/13 06:31:43;;;;;;;35.58;13.38;;;;;;;;;;4960867;28;20387;-95
2022/12/13 06:34:09;;;;;;;41.30;15.40;;;;;;;;;;4961988;28;20038;-95
2022/12/13 06:36:36;;;;;;;40.85;14.50;;;;;;;;;;4946934;28;20035;-94
2022/12/13 06:39:02;;;;;;;40.67;15.38;;;;;;;;;;4961938;28;20065;-95
2022/12/13 06:41:29;;;;;;;45.97;15.40;;;;;;;;;;4946143;28;20027;-94
2022/12/13 06:43:55;;;;;;;46.70;15.15;;;;;;;;;;4945281;28;20037;-95
2022/12/13 06:46:21;;;;;;;47.22;16.45;;;;;;;;;;4945328;28;20438;-94
2022/12/13 06:48:47;;;;;;;49.25;16.65;;;;;;;;;;4961187;28;20664;-94
2022/12/13 06:51:13;;;;;;;48.33;17.45;;;;;;;;;;4945055;28;20031;-94
2022/12/13 06:53:52;;;;;;;51.88;16.77;;;;;;;;;;4952011;28;20496;-94
2022/12/13 06:56:25;;;;;;;51.25;17.90;;;;;;;;;;4967697;28;20133;-96
2022/12/13 06:58:51;;;;;;;43.58;15.90;;;;;;;;;;4963365;28;20035;-94
2022/12/13 07:01:18;;;;;;;40.65;14.70;;;;;;;;;;4964341;28;20061;-94
2022/12/13 07:03:44;;;;;;;51.30;16.35;;;;;;;;;;4980700;28;20426;-94
2022/12/13 07:06:14;;;;;;;57.25;17.98;;;;;;;;;;5000862;28;20030;-94
2022/12/13 07:08:41;;;;;;;41.67;16.45;;;;;;;;;;4999282;28;20025;-94
2022/12/13 07:11:10;;;;;;;44.47;16.45;;;;;;;;;;4999725;28;20030;-93
2022/12/13 07:13:36;;;;;;;43.40;12.98;;;;;;;;;;4999656;28;20034;-94
2022/12/13 07:16:02;;;;;;;41.35;15.50;;;;;;;;;;4984359;28;20026;-93
2022/12/13 07:18:28;;;;;;;31.65;11.60;;;;;;;;;;4999681;28;20032;-93
2022/12/13 07:20:54;;;;;;;43.83;15.57;;;;;;;;;;4983577;28;20026;-93
2022/12/13 07:23:20;;;;;;;51.92;17.60;;;;;;;;;;4999120;28;20542;-93
2022/12/13 07:25:53;;;;;;;40.72;14.88;;;;;;;;;;4983192;28;20030;-93
2022/12/13 07:28:20;;;;;;;35.85;12.35;;;;;;;;;;5001038;28;20029;-94
2022/12/13 07:30:46;;;;;;;35.08;14.05;;;;;;;;;;5000231;28;20080;-93
2022/12/13 07:33:12;;;;;;;47.75;15.43;;;;;;;;;;4981622;28;20507;-93
2022/12/13 07:35:39;;;;;;;37.35;12.98;;;;;;;;;;5000131;28;20045;-94
2022/12/13 07:38:09;;;;;;;38.17;14.77;;;;;;;;;;4984853;28;20098;-94
2022/12/13 07:40:36;;;;;;;52.33;16.92;;;;;;;;;;5001299;28;20065;-94
2022/12/13 07:43:02;;;;;;;49.03;15.95;;;;;;;;;;4984529;28;20102;-94
2022/12/13 07:45:31;;;;;;;38.47;14.40;;;;;;;;;;4984161;28;20101;-94
2022/12/13 07:47:57;;;;;;;47.92;15.35;;;;;;;;;;4983930;28;20444;-94
2022/12/13 07:50:23;;;;;;;40.90;15.80;;;;;;;;;;4983338;28;20040;-94
2022/12/13 07:52:49;;;;;;;41.97;15.48;;;;;;;;;;4985638;28;20062;-95
2022/12/13 07:55:16;;;;;;;46.33;17.30;;;;;;;;;;4985210;28;20351;-95
2022/12/13 07:57:43;;;;;;;56.85;18.42;;;;;;;;;;4962440;28;20050;-93
2022/12/13 08:00:10;;;;;;;50.40;16.52;;;;;;;;;;4990509;28;20038;-92
2022/12/13 08:02:37;;;;;;;53.97;16.67;;;;;;;;;;4997742;28;20030;-94
2022/12/13 08:05:03;;;;;;;54.03;17.13;;;;;;;;;;4996955;28;20038;-93
2022/12/13 08:07:31;;;;;;;39.05;16.17;;;;;;;;;;4996297;28;20046;-93
2022/12/13 08:09:57;;;;;;;58.03;17.30;;;;;;;;;;5006096;28;20058;-93
2022/12/13 08:12:23;;;;;;;41.05;16.25;;;;;;;;;;4995372;28;20043;-92
2022/12/13 08:14:49;;;;;;;53.05;17.13;;;;;;;;;;5017720;28;20022;-93
2022/12/13 08:17:16;;;;;;;48.33;16.73;;;;;;;;;;4998240;28;20057;-93
2022/12/13 08:19:43;;;;;;;52.35;16.80;;;;;;;;;;4987978;28;20038;-93
2022/12/13 08:22:13;;;;;;;40.47;15.13;;;;;;;;;;4985028;28;20470;-93
2022/12/13 08:24:39;;;;;;;47.28;15.90;;;;;;;;;;4996457;28;20041;-92
2022/12/13 08:27:05;;;;;;;43.45;15.57;;;;;;;;;;4984805;28;20445;-92
2022/12/13 08:29:33;;;;;;;45.97;16.35;;;;;;;;;;5003914;28;20037;-92
2022/12/13 08:31:59;;;;;;;46.47;16.65;;;;;;;;;;4996080;28;20504;-92
2022/12/13 08:34:27;;;;;;;38.20;14.15;;;;;;;;;;5000759;28;20089;-91
2022/12/13 08:36:53;;;;;;;43.30;14.68;;;;;;;;;;5005699;28;20025;-92
2022/12/13 08:39:19;;;;;;;37.78;13.77;;;;;;;;;;4980671;28;20462;-92
2022/12/13 08:41:45;;;;;;;42.97;16.40;;;;;;;;;;4974982;28;20030;-92
2022/12/13 08:44:11;;;;;;;49.05;15.23;;;;;;;;;;5002088;28;20038;-91
2022/12/13 08:46:37;;;;;;;50.38;17.98;;;;;;;;;;4989100;28;20037;-93
2022/12/13 08:49:04;;;;;;;53.47;17.83;;;;;;;;;;5016722;28;20083;-92
2022/12/13 08:51:31;;;;;;;39.33;17.33;;;;;;;;;;4996311;28;20468;-92
2022/12/13 08:53:57;;;;;;;53.50;18.88;;;;;;;;;;4984847;28;20441;-92
2022/12/13 08:56:30;;;;;;;47.28;17.17;;;;;;;;;;4979003;28;20509;-92
2022/12/13 08:59:03;;;;;;;48.00;17.48;;;;;;;;;;4981323;28;20124;-92
2022/12/13 09:01:29;;;;;;;42.17;17.23;;;;;;;;;;4974495;28;20035;-91
2022/12/13 09:03:55;;;;;;;49.28;16.70;;;;;;;;;;4978804;28;20549;-92
2022/12/13 09:06:24;;;;;;;50.25;16.50;;;;;;;;;;4979024;28;20061;-92
2022/12/13 09:08:52;;;;;;;51.30;16.67;;;;;;;;;;4981051;28;20041;-91
2022/12/13 09:11:19;;;;;;;44.17;17.88;;;;;;;;;;5003165;28;20072;-91
2022/12/13 09:13:45;;;;;;;56.83;18.15;;;;;;;;;;5001507;28;20022;-91
2022/12/13 09:16:13;;;;;;;39.97;14.02;;;;;;;;;;4995920;28;20033;-91
2022/12/13 09:18:40;;;;;;;56.38;18.17;;;;;;;;;;4997069;28;20026;-91
2022/12/13 09:21:10;;;;;;;45.55;18.77;;;;;;;;;;4989155;28;20029;-91
2022/12/13 09:23:36;;;;;;;47.90;16.85;;;;;;;;;;4984430;28;20122;-92
2022/12/13 09:26:03;;;;;;;45.03;17.42;;;;;;;;;;4996761;28;20031;-92
2022/12/13 09:28:29;;;;;;;55.83;20.10;;;;;;;;;;4989510;28;20065;-91
2022/12/13 09:30:57;;;;;;;47.63;17.73;;;;;;;;;;4993984;28;20037;-92
2022/12/13 09:33:23;;;;;;;52.53;18.98;;;;;;;;;;4991213;28;20026;-92
2022/12/13 09:35:50;;;;;;;49.67;19.40;;;;;;;;;;5000305;28;20079;-92
2022/12/13 09:38:17;;;;;;;50.13;18.63;;;;;;;;;;4996556;28;20138;-91
2022/12/13 09:40:45;;;;;;;53.28;19.42;;;;;;;;;;4978040;28;20030;-92
2022/12/13 09:43:23;;;;;;;51.85;18.85;;;;;;;;;;4979575;28;20060;-92
2022/12/13 09:45:49;;;;;;;52.50;22.15;;;;;;;;;;4991158;28;20121;-92
2022/12/13 09:48:19;;;;;;;52.65;19.48;;;;;;;;;;4990854;28;20428;-92
2022/12/13 09:50:46;;;;;;;71.60;21.70;;;;;;;;;;4980149;28;20026;-92
2022/12/13 09:53:14;;;;;;;60.00;19.02;;;;;;;;;;4991457;28;20026;-92
2022/12/13 09:55:51;;;;;;;60.47;22.17;;;;;;;;;;4994521;28;20026;-91
2022/12/13 09:58:20;;;;;;;48.28;18.77;;;;;;;;;;4987077;28;20026;-91
2022/12/13 10:00:47;;;;;;;49.50;19.40;;;;;;;;;;4971768;28;20022;-92
2022/12/13 10:03:15;;;;;;;53.10;18.77;;;;;;;;;;4969725;28;20344;-91
2022/12/13 10:05:43;;;;;;;50.47;19.08;;;;;;;;;;4960238;28;20050;-91
2022/12/13 10:08:14;;;;;;;51.85;20.00;;;;;;;;;;4979029;28;20049;-93
2022/12/13 10:10:41;;;;;;;52.97;18.67;;;;;;;;;;4976634;28;20034;-91
2022/12/13 10:13:10;;;;;;;58.40;16.65;;;;;;;;;;4973253;28;20026;-91
2022/12/13 10:15:39;;;;;;;43.35;15.55;;;;;;;;;;4979334;28;20037;-91
2022/12/13 10:18:06;;;;;;;52.50;18.50;;;;;;;;;;4974036;28;20073;-92
2022/12/13 10:20:32;;;;;;;47.03;17.52;;;;;;;;;;4956145;28;20030;-91
2022/12/13 10:22:58;;;;;;;43.22;17.50;;;;;;;;;;4956808;28;20081;-91
2022/12/13 10:25:43;;;;;;;35.47;16.40;;;;;;;;;;4959434;28;20038;-92
2022/12/13 10:28:09;;;;;;;51.30;18.83;;;;;;;;;;4974067;28;20065;-92
2022/12/13 10:30:42;;;;;;;39.28;17.50;;;;;;;;;;4975640;28;20040;-92
2022/12/13 10:33:20;;;;;;;42.97;18.40;;;;;;;;;;4976523;28;20026;-92
2022/12/13 10:36:00;;;;;;;41.58;18.42;;;;;;;;;;4987080;28;20026;-92
2022/12/13 10:38:28;;;;;;;41.58;16.60;;;;;;;;;;4969053;28;20033;-92
2022/12/13 10:40:54;;;;;;;40.33;16.98;;;;;;;;;;4968885;28;20085;-91
2022/12/13 10:43:25;;;;;;;47.58;19.48;;;;;;;;;;4968392;28;20026;-92
2022/12/13 10:45:55;;;;;;;40.30;16.88;;;;;;;;;;4969424;28;20038;-91
2022/12/13 10:48:29;;;;;;;52.90;19.15;;;;;;;;;;4975665;28;20073;-91
2022/12/13 10:51:04;;;;;;;50.08;18.30;;;;;;;;;;4982791;28;20043;-91
2022/12/13 10:53:39;;;;;;;36.03;17.08;;;;;;;;;;4972932;28;20045;-92
2022/12/13 10:56:05;;;;;;;39.78;16.83;;;;;;;;;;4984695;28;20070;-90
2022/12/13 10:58:42;;;;;;;36.85;17.77;;;;;;;;;;4982359;28;20451;-91
2022/12/13 11:01:17;;;;;;;37.35;17.05;;;;;;;;;;4998091;28;20503;-91
2022/12/13 11:03:55;;;;;;;47.95;18.52;;;;;;;;;;4993329;28;20025;-91
2022/12/13 11:06:21;;;;;;;36.30;16.55;;;;;;;;;;4987327;28;20035;-92
2022/12/13 11:08:47;;;;;;;37.45;16.63;;;;;;;;;;4978191;28;20299;-91
2022/12/13 11:11:16;;;;;;;34.92;17.83;;;;;;;;;;4974636;28;20037;-91
2022/12/13 11:13:46;;;;;;;37.90;17.42;;;;;;;;;;4996269;23;20050;-88
2022/12/13 11:16:25;;;;;;;44.17;17.75;;;;;;;;;;4956278;28;20031;-88
2022/12/13 11:18:55;;;;;;;39.83;16.15;;;;;;;;;;4966518;28;20077;-88
2022/12/13 11:21:26;;;;;;;41.90;18.00;;;;;;;;;;4967778;28;20371;-88
2022/12/13 11:23:55;;;;;;;42.20;15.48;;;;;;;;;;4964439;28;20030;-88
2022/12/13 11:26:22;;;;;;;41.65;17.48;;;;;;;;;;4968937;28;20034;-88
2022/12/13 11:28:54;;;;;;;40.63;17.98;;;;;;;;;;4964825;28;20038;-89
2022/12/13 11:31:39;;;;;;;35.92;16.88;;;;;;;;;;4962356;28;20026;-88
2022/12/13 11:34:08;;;;;;;40.88;17.10;;;;;;;;;;4962094;28;20451;-88
2022/12/13 11:36:40;;;;;;;28.27;15.25;;;;;;;;;;4958934;28;20037;-88
2022/12/13 11:39:07;;;;;;;38.50;16.95;;;;;;;;;;4964928;28;20023;-88
2022/12/13 11:41:38;;;;;;;39.88;16.88;;;;;;;;;;4966450;28;20097;-88
2022/12/13 11:44:16;;;;;;;38.40;17.05;;;;;;;;;;4963296;28;20359;-88
2022/12/13 11:46:45;;;;;;;41.58;16.67;;;;;;;;;;4962776;28;20034;-87
2022/12/13 11:49:19;;;;;;;38.28;16.83;;;;;;;;;;4960204;28;20110;-88
2022/12/13 11:52:03;;;;;;;35.67;15.80;;;;;;;;;;4959604;28;20032;-88
2022/12/13 11:54:53;;;;;;;28.58;15.02;;;;;;;;;;4944999;28;20109;-88
2022/12/13 11:57:34;;;;;;;36.92;15.32;;;;;;;;;;4942931;28;20061;-87
2022/12/13 12:00:20;;;;;;;31.42;14.98;;;;;;;;;;4954691;28;20419;-88
2022/12/13 12:02:50;;;;;;;28.90;14.48;;;;;;;;;;4929161;28;20100;-88
2022/12/13 12:05:25;;;;;;;32.92;14.02;;;;;;;;;;4958882;28;20502;-88
2022/12/13 12:07:54;;;;;;;34.55;14.70;;;;;;;;;;4942157;28;20035;-88
2022/12/13 12:10:28;;;;;;;30.00;12.77;;;;;;;;;;4960234;28;20050;-88
2022/12/13 12:13:09;;;;;;;26.85;12.40;;;;;;;;;;4961763;28;20039;-87
2022/12/13 12:15:50;;;;;;;31.05;13.02;;;;;;;;;;4912168;28;20525;-88
2022/12/13 12:18:17;;;;;;;21.02;11.85;;;;;;;;;;4916616;29;20567;-88
2022/12/13 12:20:54;;;;;;;26.40;11.35;;;;;;;;;;4898266;29;20527;-88
2022/12/13 12:23:36;;;;;;;27.50;11.98;;;;;;;;;;4905959;29;20509;-89
2022/12/13 12:26:14;;;;;;;29.13;12.35;;;;;;;;;;4921050;29;20040;-89
2022/12/13 12:28:58;;;;;;;24.10;12.13;;;;;;;;;;4920645;29;20028;-88
2022/12/13 12:31:32;;;;;;;21.52;11.15;;;;;;;;;;4906272;29;20474;-88
2022/12/13 12:34:14;;;;;;;21.58;11.10;;;;;;;;;;4921114;29;20500;-87
2022/12/13 12:36:40;;;;;;;24.05;11.65;;;;;;;;;;4903887;29;20031;-88
2022/12/13 12:39:06;;;;;;;25.00;9.80;;;;;;;;;;4926318;29;20023;-88
2022/12/13 12:41:40;;;;;;;24.42;9.63;;;;;;;;;;4922330;29;20027;-88
2022/12/13 12:44:09;;;;;;;19.10;10.65;;;;;;;;;;4923348;29;20154;-88
2022/12/13 12:46:35;;;;;;;23.80;11.35;;;;;;;;;;4923315;29;20035;-87
2022/12/13 12:49:11;;;;;;;23.15;10.45;;;;;;;;;;4914514;29;20377;-87
2022/12/13 12:51:52;;;;;;;24.38;10.25;;;;;;;;;;4921868;29;20547;-88
2022/12/13 12:54:34;;;;;;;25.67;11.13;;;;;;;;;;4922896;29;20059;-87
2022/12/13 12:57:03;;;;;;;24.77;10.55;;;;;;;;;;4908943;29;20031;-88
2022/12/13 12:59:33;;;;;;;22.17;10.43;;;;;;;;;;4921006;29;20036;-87
2022/12/13 13:02:15;;;;;;;19.23;10.90;;;;;;;;;;4912584;29;20032;-88
2022/12/13 13:04:53;;;;;;;25.42;10.13;;;;;;;;;;4918027;29;20106;-88
2022/12/13 13:07:39;;;;;;;21.23;10.73;;;;;;;;;;4908454;29;20649;-88
2022/12/13 13:10:07;;;;;;;17.98;9.48;;;;;;;;;;4907222;29;20046;-88
2022/12/13 13:12:36;;;;;;;27.50;10.07;;;;;;;;;;4914139;29;20502;-90
2022/12/13 13:15:22;;;;;;;16.98;6.05;;;;;;;;;;4927360;28;20105;-88
2022/12/13 13:17:48;;;;;;;19.92;9.70;;;;;;;;;;4924291;29;20031;-88
2022/12/13 13:20:19;;;;;;;22.83;10.75;;;;;;;;;;4922971;28;20032;-88
2022/12/13 13:22:49;;;;;;;20.25;9.75;;;;;;;;;;4939892;28;20046;-88
2022/12/13 13:25:34;;;;;;;21.98;10.48;;;;;;;;;;4963064;28;20043;-88
2022/12/13 13:28:05;;;;;;;21.80;9.70;;;;;;;;;;4947292;28;20400;-88
2022/12/13 13:30:31;;;;;;;23.88;10.23;;;;;;;;;;4959364;28;20039;-88
2022/12/13 13:32:58;;;;;;;16.55;9.30;;;;;;;;;;4944594;28;20349;-88
2022/12/13 13:35:30;;;;;;;22.77;10.23;;;;;;;;;;4961208;28;20027;-88
2022/12/13 13:38:00;;;;;;;20.48;9.93;;;;;;;;;;4961839;28;20222;-88
2022/12/13 13:40:27;;;;;;;22.65;11.15;;;;;;;;;;4939693;28;20057;-88
2022/12/13 13:43:07;;;;;;;16.80;9.25;;;;;;;;;;4958413;28;20046;-88
2022/12/13 13:45:49;;;;;;;21.48;9.68;;;;;;;;;;4960272;28;20037;-89
2022/12/13 13:48:37;;;;;;;20.92;11.43;;;;;;;;;;4966741;28;20125;-88
2022/12/13 13:51:29;;;;;;;20.83;9.73;;;;;;;;;;4958337;28;20042;-88
2022/12/13 13:54:08;;;;;;;25.45;10.75;;;;;;;;;;4958817;28;20042;-89
2022/12/13 13:56:53;;;;;;;22.63;10.15;;;;;;;;;;4958472;28;20050;-89
2022/12/13 13:59:32;;;;;;;21.00;10.32;;;;;;;;;;4964330;28;20031;-88
2022/12/13 14:02:07;;;;;;;28.42;10.57;;;;;;;;;;4966699;28;20685;-87
2022/12/13 14:04:52;;;;;;;21.45;10.18;;;;;;;;;;4963785;28;20093;-88
2022/12/13 14:07:44;;;;;;;23.40;10.40;;;;;;;;;;4959358;28;20043;-88
2022/12/13 14:10:13;;;;;;;28.67;11.75;;;;;;;;;;4905573;29;20059;-88
2022/12/13 14:13:01;;;;;;;20.88;9.48;;;;;;;;;;4958796;28;20878;-88
2022/12/13 14:15:52;;;;;;;22.33;9.77;;;;;;;;;;4921574;28;20043;-87
2022/12/13 14:18:37;;;;;;;24.88;11.13;;;;;;;;;;4940988;28;20043;-88
2022/12/13 14:21:03;;;;;;;25.17;11.52;;;;;;;;;;4915437;29;20495;-88
2022/12/13 14:23:48;;;;;;;27.88;12.55;;;;;;;;;;4941084;28;20045;-88
2022/12/13 14:26:14;;;;;;;29.02;11.13;;;;;;;;;;4944010;28;20035;-88
2022/12/13 14:28:47;;;;;;;30.30;12.40;;;;;;;;;;4943192;28;20038;-88
2022/12/13 14:31:17;;;;;;;25.50;11.98;;;;;;;;;;4935442;28;20395;-88
2022/12/13 14:33:45;;;;;;;28.65;12.88;;;;;;;;;;4940799;28;20469;-88
2022/12/13 14:36:14;;;;;;;32.65;13.63;;;;;;;;;;4909381;28;20026;-88
2022/12/13 14:38:40;;;;;;;30.45;12.73;;;;;;;;;;4927674;28;20039;-88